createdAt,value
2023-03-29T00:00:44.901Z,56.79
2023-03-29T00:01:44.917Z,56.87
2023-03-29T00:02:45.018Z,56.97
2023-03-29T00:03:44.875Z,56.96
2023-03-29T00:04:45.054Z,56.96
2023-03-29T00:05:44.868Z,56.94
2023-03-29T00:06:44.805Z,56.83
2023-03-29T00:07:44.816Z,56.72
2023-03-29T00:08:44.794Z,56.73
2023-03-29T00:09:44.777Z,56.81
2023-03-29T00:10:44.814Z,56.86
2023-03-29T00:11:44.785Z,56.77
2023-03-29T00:12:44.738Z,56.61
2023-03-29T00:13:44.729Z,56.53
2023-03-29T00:14:44.737Z,56.53
2023-03-29T00:15:44.704Z,56.58
2023-03-29T00:16:44.825Z,56.67
2023-03-29T00:17:44.726Z,56.73
2023-03-29T00:18:44.676Z,56.81
2023-03-29T00:19:44.669Z,56.87
2023-03-29T00:20:44.691Z,56.91
2023-03-29T00:21:44.649Z,56.96
2023-03-29T00:22:44.612Z,57.01
2023-03-29T00:23:44.623Z,57.12
2023-03-29T00:24:44.597Z,57.21
2023-03-29T00:25:44.584Z,57.20
2023-03-29T00:26:44.589Z,57.26
2023-03-29T00:27:44.574Z,57.31
2023-03-29T00:28:44.574Z,57.23
2023-03-29T00:29:44.542Z,57.22
2023-03-29T00:30:44.568Z,57.28
2023-03-29T00:31:44.594Z,57.35
2023-03-29T00:32:44.543Z,57.36
2023-03-29T00:33:44.499Z,57.35
2023-03-29T00:34:44.481Z,57.36
2023-03-29T00:35:44.523Z,57.35
2023-03-29T00:36:44.497Z,57.37
2023-03-29T00:37:44.462Z,57.35
2023-03-29T00:38:44.475Z,57.30
2023-03-29T00:39:44.444Z,57.30
2023-03-29T00:40:44.416Z,57.33
2023-03-29T00:41:44.417Z,57.38
2023-03-29T00:42:44.413Z,57.35
2023-03-29T00:43:44.456Z,57.37
2023-03-29T00:44:44.383Z,57.38
2023-03-29T00:45:44.386Z,57.33
2023-03-29T00:46:44.390Z,57.29
2023-03-29T00:47:44.361Z,57.36
2023-03-29T00:48:44.362Z,57.44
2023-03-29T00:49:44.364Z,57.48
2023-03-29T00:50:44.302Z,57.54
2023-03-29T00:51:44.338Z,57.60
2023-03-29T00:52:44.282Z,57.64
2023-03-29T00:53:44.297Z,57.69
2023-03-29T00:54:44.309Z,57.79
2023-03-29T00:55:44.286Z,57.85
2023-03-29T00:56:44.280Z,57.86
2023-03-29T00:57:44.236Z,57.91
2023-03-29T00:58:44.231Z,57.92
2023-03-29T00:59:44.242Z,57.98
2023-03-29T01:00:44.216Z,57.97
2023-03-29T01:01:44.290Z,58.04
2023-03-29T01:02:44.243Z,58.09
2023-03-29T01:03:44.218Z,58.08
2023-03-29T01:04:44.167Z,58.09
2023-03-29T01:05:44.172Z,58.14
2023-03-29T01:06:44.182Z,58.09
2023-03-29T01:07:44.135Z,58.08
2023-03-29T01:08:44.165Z,58.03
2023-03-29T01:09:44.118Z,57.95
2023-03-29T01:10:44.116Z,57.99
2023-03-29T01:11:44.115Z,57.98
2023-03-29T01:12:44.084Z,57.89
2023-03-29T01:13:44.055Z,57.61
2023-03-29T01:14:44.083Z,57.46
2023-03-29T01:15:44.046Z,57.50
2023-03-29T01:16:44.094Z,57.54
2023-03-29T01:17:44.084Z,57.62
2023-03-29T01:18:44.020Z,57.66
2023-03-29T01:19:44.012Z,57.64
2023-03-29T01:20:44.003Z,57.58
2023-03-29T01:21:43.984Z,57.56
2023-03-29T01:22:43.999Z,57.57
2023-03-29T01:23:43.985Z,57.59
2023-03-29T01:24:43.955Z,57.61
2023-03-29T01:25:43.926Z,57.60
2023-03-29T01:26:43.926Z,57.55
2023-03-29T01:27:43.952Z,57.63
2023-03-29T01:28:43.900Z,57.69
2023-03-29T01:29:43.886Z,57.72
2023-03-29T01:30:43.868Z,57.77
2023-03-29T01:31:43.921Z,57.82
2023-03-29T01:32:43.995Z,57.83
2023-03-29T01:33:43.887Z,57.91
2023-03-29T01:34:43.842Z,57.97
2023-03-29T01:35:43.958Z,57.89
2023-03-29T01:36:43.826Z,57.72
2023-03-29T01:37:43.811Z,57.85
2023-03-29T01:38:43.801Z,57.93
2023-03-29T01:39:43.804Z,57.92
2023-03-29T01:40:43.768Z,57.95
2023-03-29T01:41:43.783Z,57.98
2023-03-29T01:42:43.790Z,58.03
2023-03-29T01:43:43.759Z,57.98
2023-03-29T01:44:43.761Z,57.88
2023-03-29T01:45:43.744Z,57.89
2023-03-29T01:46:43.754Z,57.80
2023-03-29T01:47:43.710Z,57.80
2023-03-29T01:48:43.748Z,57.65
2023-03-29T01:49:43.676Z,57.55
2023-03-29T01:50:43.678Z,57.64
2023-03-29T01:51:43.711Z,57.70
2023-03-29T01:52:43.659Z,57.76
2023-03-29T01:53:43.675Z,57.91
2023-03-29T01:54:43.636Z,58.07
2023-03-29T01:55:43.609Z,58.19
2023-03-29T01:56:43.653Z,58.30
2023-03-29T01:57:43.623Z,58.28
2023-03-29T01:58:43.585Z,58.30
2023-03-29T01:59:43.563Z,58.34
2023-03-29T02:00:43.597Z,58.40
2023-03-29T02:01:43.557Z,58.47
2023-03-29T02:02:43.601Z,58.50
2023-03-29T02:03:43.585Z,58.47
2023-03-29T02:04:43.570Z,58.45
2023-03-29T02:05:43.493Z,58.33
2023-03-29T02:06:43.506Z,58.09
2023-03-29T02:07:43.499Z,58.02
2023-03-29T02:08:43.493Z,58.06
2023-03-29T02:09:43.469Z,58.13
2023-03-29T02:10:43.469Z,58.19
2023-03-29T02:11:43.434Z,58.27
2023-03-29T02:12:43.430Z,58.30
2023-03-29T02:13:43.444Z,58.32
2023-03-29T02:14:43.434Z,58.20
2023-03-29T02:15:43.465Z,58.18
2023-03-29T02:16:43.382Z,58.14
2023-03-29T02:17:43.386Z,58.09
2023-03-29T02:18:43.405Z,58.09
2023-03-29T02:19:43.424Z,58.12
2023-03-29T02:20:43.362Z,58.13
2023-03-29T02:21:43.363Z,58.13
2023-03-29T02:22:43.323Z,58.17
2023-03-29T02:23:43.309Z,58.18
2023-03-29T02:24:43.383Z,58.20
2023-03-29T02:25:43.328Z,58.25
2023-03-29T02:26:43.305Z,58.30
2023-03-29T02:27:43.278Z,58.28
2023-03-29T02:28:43.283Z,58.24
2023-03-29T02:29:43.253Z,58.22
2023-03-29T02:30:43.240Z,58.26
2023-03-29T02:31:43.286Z,58.25
2023-03-29T02:32:43.203Z,58.28
2023-03-29T02:33:43.196Z,58.26
2023-03-29T02:34:43.221Z,58.33
2023-03-29T02:35:43.207Z,58.40
2023-03-29T02:36:43.144Z,58.43
2023-03-29T02:37:43.167Z,58.40
2023-03-29T02:38:43.135Z,58.40
2023-03-29T02:39:43.127Z,58.35
2023-03-29T02:40:43.132Z,58.29
2023-03-29T02:41:43.105Z,58.42
2023-03-29T02:42:43.160Z,58.42
2023-03-29T02:43:43.075Z,58.41
2023-03-29T02:44:43.065Z,58.33
2023-03-29T02:45:43.054Z,58.33
2023-03-29T02:46:43.171Z,58.36
2023-03-29T02:47:43.084Z,58.43
2023-03-29T02:48:43.032Z,58.50
2023-03-29T02:49:43.017Z,58.51
2023-03-29T02:50:42.998Z,58.48
2023-03-29T02:51:43.003Z,58.40
2023-03-29T02:52:43.001Z,58.33
2023-03-29T02:53:42.993Z,58.35
2023-03-29T02:54:42.956Z,58.39
2023-03-29T02:55:42.981Z,58.49
2023-03-29T02:56:42.981Z,58.54
2023-03-29T02:57:42.982Z,58.57
2023-03-29T02:58:42.939Z,58.66
2023-03-29T02:59:43.013Z,58.74
2023-03-29T03:00:43.056Z,58.85
2023-03-29T03:01:42.951Z,58.99
2023-03-29T03:02:42.981Z,59.08
2023-03-29T03:03:42.998Z,59.19
2023-03-29T03:04:42.889Z,59.23
2023-03-29T03:05:42.857Z,59.28
2023-03-29T03:06:42.827Z,59.37
2023-03-29T03:07:42.856Z,59.44
2023-03-29T03:08:42.865Z,59.45
2023-03-29T03:09:42.802Z,59.46
2023-03-29T03:10:42.814Z,59.47
2023-03-29T03:11:42.772Z,59.50
2023-03-29T03:12:42.776Z,59.60
2023-03-29T03:13:42.778Z,59.62
2023-03-29T03:14:42.754Z,59.63
2023-03-29T03:15:42.851Z,59.64
2023-03-29T03:16:42.862Z,59.60
2023-03-29T03:17:42.808Z,59.56
2023-03-29T03:18:42.715Z,59.55
2023-03-29T03:19:42.701Z,59.58
2023-03-29T03:20:42.717Z,59.41
2023-03-29T03:21:42.700Z,59.20
2023-03-29T03:22:42.708Z,59.11
2023-03-29T03:23:42.706Z,59.12
2023-03-29T03:24:42.623Z,59.10
2023-03-29T03:25:42.636Z,59.01
2023-03-29T03:26:42.623Z,58.92
2023-03-29T03:27:42.635Z,58.91
2023-03-29T03:28:42.598Z,58.94
2023-03-29T03:29:42.579Z,58.92
2023-03-29T03:30:42.572Z,58.88
2023-03-29T03:31:42.586Z,58.63
2023-03-29T03:32:42.637Z,58.63
2023-03-29T03:33:42.577Z,58.72
2023-03-29T03:34:42.524Z,58.77
2023-03-29T03:35:42.667Z,58.82
2023-03-29T03:36:42.499Z,58.88
2023-03-29T03:37:42.509Z,58.96
2023-03-29T03:38:42.511Z,59.04
2023-03-29T03:39:42.512Z,59.09
2023-03-29T03:40:42.475Z,59.12
2023-03-29T03:41:42.498Z,59.13
2023-03-29T03:42:42.448Z,59.22
2023-03-29T03:43:42.488Z,59.30
2023-03-29T03:44:42.431Z,59.35
2023-03-29T03:45:42.577Z,59.43
2023-03-29T03:46:42.445Z,59.52
2023-03-29T03:47:42.535Z,59.58
2023-03-29T03:48:42.460Z,59.62
2023-03-29T03:49:42.408Z,59.62
2023-03-29T03:50:42.397Z,59.59
2023-03-29T03:51:42.430Z,59.61
2023-03-29T03:52:42.414Z,59.70
2023-03-29T03:53:42.410Z,59.75
2023-03-29T03:54:42.346Z,59.77
2023-03-29T03:55:42.569Z,59.87
2023-03-29T03:56:42.378Z,59.98
2023-03-29T03:57:42.328Z,60.08
2023-03-29T03:58:42.402Z,60.00
2023-03-29T03:59:42.301Z,59.81
2023-03-29T04:00:42.341Z,59.64
2023-03-29T04:01:42.424Z,59.58
2023-03-29T04:02:42.399Z,59.59
2023-03-29T04:03:42.381Z,59.61
2023-03-29T04:04:42.300Z,59.60
2023-03-29T04:05:42.366Z,59.56
2023-03-29T04:06:43.761Z,59.64
2023-03-29T04:07:42.367Z,59.54
2023-03-29T04:08:42.259Z,59.47
2023-03-29T04:09:42.239Z,59.46
2023-03-29T04:10:42.187Z,59.51
2023-03-29T04:11:42.209Z,59.70
2023-03-29T04:12:42.229Z,59.97
2023-03-29T04:13:42.167Z,60.17
2023-03-29T04:14:42.200Z,60.31
2023-03-29T04:15:42.159Z,60.23
2023-03-29T04:16:42.270Z,60.15
2023-03-29T04:17:42.155Z,60.14
2023-03-29T04:18:42.359Z,60.11
2023-03-29T04:19:42.177Z,60.08
2023-03-29T04:20:42.313Z,60.04
2023-03-29T04:21:42.072Z,60.10
2023-03-29T04:22:42.047Z,60.08
2023-03-29T04:23:42.085Z,60.10
2023-03-29T04:24:42.156Z,60.06
2023-03-29T04:27:14.123Z,60.11
2023-03-29T04:28:14.115Z,60.14
2023-03-29T04:29:13.969Z,60.23
2023-03-29T04:30:14.180Z,60.27
2023-03-29T04:31:13.877Z,60.40
2023-03-29T04:32:21.822Z,60.34
2023-03-29T04:33:14.352Z,60.25
2023-03-29T04:34:14.250Z,60.09
2023-03-29T04:35:14.044Z,60.07
2023-03-29T04:36:14.073Z,60.09
2023-03-29T04:37:14.110Z,60.11
2023-03-29T04:38:13.934Z,60.19
2023-03-29T04:39:13.849Z,60.21
2023-03-29T04:40:13.803Z,60.17
2023-03-29T04:41:13.768Z,60.22
2023-03-29T04:42:13.712Z,60.21
2023-03-29T04:43:13.766Z,60.18
2023-03-29T04:44:13.726Z,60.16
2023-03-29T04:45:13.804Z,60.17
2023-03-29T04:46:13.702Z,60.15
2023-03-29T04:47:13.695Z,60.16
2023-03-29T04:48:13.706Z,60.19
2023-03-29T04:49:13.656Z,60.18
2023-03-29T04:50:13.684Z,60.21
2023-03-29T04:51:13.626Z,60.25
2023-03-29T04:52:13.680Z,60.28
2023-03-29T04:53:13.629Z,60.33
2023-03-29T04:54:13.647Z,60.40
2023-03-29T04:55:13.646Z,60.47
2023-03-29T04:56:13.582Z,60.49
2023-03-29T04:57:13.641Z,60.53
2023-03-29T04:58:13.757Z,60.59
2023-03-29T04:59:13.565Z,60.67
2023-03-29T05:00:13.542Z,60.75
2023-03-29T05:01:13.567Z,60.81
2023-03-29T05:02:13.533Z,60.86
2023-03-29T05:03:13.522Z,60.94
2023-03-29T05:04:13.553Z,61.01
2023-03-29T05:05:14.289Z,61.10
2023-03-29T05:06:13.638Z,61.15
2023-03-29T05:07:13.673Z,61.23
2023-03-29T05:08:13.536Z,61.24
2023-03-29T05:09:13.580Z,61.27
2023-03-29T05:10:13.565Z,61.29
2023-03-29T05:11:13.537Z,61.32
2023-03-29T05:12:13.785Z,61.39
2023-03-29T05:13:13.421Z,61.42
2023-03-29T05:14:13.442Z,61.50
2023-03-29T05:15:13.600Z,61.55
2023-03-29T05:16:13.461Z,61.59
2023-03-29T05:19:40.798Z,61.89
2023-03-29T05:22:19.015Z,61.94
2023-03-29T05:23:18.785Z,62.00
2023-03-29T05:24:19.206Z,62.11
2023-03-29T05:25:18.875Z,62.18
2023-03-29T05:26:18.840Z,62.23
2023-03-29T05:27:18.904Z,62.27
2023-03-29T05:28:18.868Z,62.32
2023-03-29T05:29:18.908Z,62.38
2023-03-29T05:30:19.059Z,62.44
2023-03-29T05:31:18.712Z,62.52
2023-03-29T05:32:18.833Z,62.60
2023-03-29T05:33:18.677Z,62.66
2023-03-29T05:34:18.717Z,62.71
2023-03-29T05:35:18.750Z,62.78
2023-03-29T05:36:18.656Z,62.83
2023-03-29T05:37:18.693Z,62.87
2023-03-29T05:38:18.601Z,62.93
2023-03-29T05:39:18.662Z,62.99
2023-03-29T05:40:18.633Z,63.12
2023-03-29T05:41:18.599Z,63.19
2023-03-29T05:42:18.709Z,63.18
2023-03-29T05:43:18.563Z,63.28
2023-03-29T05:44:18.592Z,63.30
2023-03-29T05:45:18.603Z,63.32
2023-03-29T05:46:18.573Z,63.38
2023-03-29T05:47:18.537Z,63.44
2023-03-29T05:48:18.539Z,63.47
2023-03-29T05:49:18.539Z,63.47
2023-03-29T05:50:18.494Z,63.50
2023-03-29T05:51:18.465Z,63.58
2023-03-29T05:52:18.586Z,63.54
2023-03-29T05:53:18.564Z,63.62
2023-03-29T05:54:18.446Z,63.59
2023-03-29T05:55:18.537Z,63.62
2023-03-29T05:56:18.502Z,63.69
2023-03-29T05:57:18.607Z,63.70
2023-03-29T05:58:18.484Z,63.73
2023-03-29T05:59:18.388Z,63.73
2023-03-29T06:00:18.411Z,63.73
2023-03-29T06:01:18.362Z,63.74
2023-03-29T06:02:18.569Z,63.83
2023-03-29T06:03:21.362Z,63.80
2023-03-29T06:04:18.469Z,63.86
2023-03-29T06:05:18.356Z,63.88
2023-03-29T06:06:18.365Z,63.97
2023-03-29T06:07:18.372Z,63.96
2023-03-29T06:08:18.314Z,63.91
2023-03-29T06:09:18.379Z,63.94
2023-03-29T06:10:18.290Z,63.96
2023-03-29T06:11:18.280Z,64.00
2023-03-29T06:12:18.264Z,64.01
2023-03-29T06:13:18.235Z,64.04
2023-03-29T06:14:18.259Z,64.11
2023-03-29T06:15:18.328Z,64.13
2023-03-29T06:16:18.251Z,64.10
2023-03-29T06:17:18.360Z,63.98
2023-03-29T06:18:18.211Z,64.01
2023-03-29T06:19:18.197Z,63.98
2023-03-29T06:20:18.167Z,63.99
2023-03-29T06:21:18.230Z,64.09
2023-03-29T06:22:18.335Z,64.14
2023-03-29T06:23:18.162Z,64.20
2023-03-29T06:24:18.200Z,64.18
2023-03-29T06:25:18.121Z,64.16
2023-03-29T06:26:18.122Z,64.19
2023-03-29T06:27:18.089Z,64.22
2023-03-29T06:28:18.765Z,64.27
2023-03-29T06:29:18.186Z,64.27
2023-03-29T06:30:18.088Z,64.28
2023-03-29T06:31:18.158Z,64.31
2023-03-29T06:32:18.124Z,64.38
2023-03-29T06:33:18.080Z,64.32
2023-03-29T06:34:18.019Z,64.39
2023-03-29T06:35:18.149Z,64.38
2023-03-29T06:36:18.108Z,64.34
2023-03-29T06:37:18.065Z,64.38
2023-03-29T06:38:18.020Z,64.41
2023-03-29T06:39:17.972Z,64.41
2023-03-29T06:40:18.094Z,64.45
2023-03-29T06:41:18.732Z,64.37
2023-03-29T06:42:21.570Z,64.32
2023-03-29T06:43:17.999Z,64.32
2023-03-29T06:44:17.901Z,64.25
2023-03-29T06:45:17.898Z,64.33
2023-03-29T06:46:17.946Z,64.35
2023-03-29T06:47:17.854Z,64.38
2023-03-29T06:48:18.007Z,64.34
2023-03-29T06:49:17.828Z,64.30
2023-03-29T06:50:18.141Z,64.33
2023-03-29T06:51:17.826Z,64.28
2023-03-29T06:52:17.867Z,64.29
2023-03-29T06:53:17.769Z,64.22
2023-03-29T06:54:17.772Z,64.16
2023-03-29T06:55:17.797Z,64.14
2023-03-29T06:56:17.822Z,64.21
2023-03-29T06:57:17.892Z,64.20
2023-03-29T06:58:17.747Z,64.21
2023-03-29T06:59:17.788Z,64.22
2023-03-29T07:00:17.762Z,64.17
2023-03-29T07:01:17.832Z,64.13
2023-03-29T07:02:17.730Z,64.06
2023-03-29T07:03:17.747Z,63.96
2023-03-29T07:04:18.194Z,64.00
2023-03-29T07:05:17.745Z,64.10
2023-03-29T07:06:17.671Z,64.16
2023-03-29T07:07:17.668Z,64.18
2023-03-29T07:08:17.709Z,64.19
2023-03-29T07:09:19.428Z,64.17
2023-03-29T07:10:17.665Z,64.17
2023-03-29T07:11:17.668Z,64.05
2023-03-29T07:12:17.595Z,64.13
2023-03-29T07:13:17.627Z,64.16
2023-03-29T07:14:17.562Z,64.17
2023-03-29T07:15:17.641Z,64.19
2023-03-29T07:16:17.627Z,64.09
2023-03-29T07:17:18.343Z,64.08
2023-03-29T07:18:17.550Z,64.11
2023-03-29T07:19:17.612Z,64.01
2023-03-29T07:20:17.594Z,64.02
2023-03-29T07:21:17.803Z,63.95
2023-03-29T07:22:17.558Z,64.05
2023-03-29T07:23:17.568Z,64.13
2023-03-29T07:24:17.600Z,64.15
2023-03-29T07:25:17.568Z,64.09
2023-03-29T07:26:28.742Z,64.00
2023-03-29T07:27:18.408Z,64.07
2023-03-29T07:28:17.528Z,64.15
2023-03-29T07:29:17.444Z,64.12
2023-03-29T07:30:17.420Z,64.17
2023-03-29T07:31:17.558Z,64.23
2023-03-29T07:32:17.465Z,64.26
2023-03-29T07:33:17.515Z,64.18
2023-03-29T07:34:17.389Z,64.17
2023-03-29T07:35:17.414Z,64.01
2023-03-29T07:36:17.387Z,64.00
2023-03-29T07:37:17.357Z,63.94
2023-03-29T07:38:17.354Z,63.97
2023-03-29T07:39:17.390Z,63.99
2023-03-29T07:40:17.332Z,64.06
2023-03-29T07:41:17.377Z,64.01
2023-03-29T07:42:17.364Z,64.01
2023-03-29T07:43:17.281Z,63.99
2023-03-29T07:44:17.293Z,63.93
2023-03-29T07:45:17.347Z,63.89
2023-03-29T07:46:17.424Z,63.86
2023-03-29T07:47:17.249Z,63.91
2023-03-29T07:48:17.264Z,63.87
2023-03-29T07:49:17.198Z,63.97
2023-03-29T07:50:17.340Z,63.97
2023-03-29T07:51:17.189Z,63.98
2023-03-29T07:52:17.242Z,64.01
2023-03-29T07:53:17.225Z,64.11
2023-03-29T07:54:17.155Z,64.15
2023-03-29T07:55:17.222Z,64.21
2023-03-29T07:56:17.122Z,64.10
2023-03-29T07:57:17.193Z,63.90
2023-03-29T07:58:17.127Z,63.84
2023-03-29T07:59:17.115Z,63.87
2023-03-29T08:00:17.309Z,63.87
2023-03-29T08:01:19.448Z,63.84
2023-03-29T08:02:17.215Z,63.90
2023-03-29T08:03:17.162Z,63.85
2023-03-29T08:04:17.160Z,63.81
2023-03-29T08:05:23.283Z,63.84
2023-03-29T08:06:18.046Z,63.91
2023-03-29T08:07:18.886Z,63.89
2023-03-29T08:08:17.079Z,63.97
2023-03-29T08:09:17.068Z,63.93
2023-03-29T08:10:17.006Z,63.83
2023-03-29T08:11:17.012Z,63.80
2023-03-29T08:12:17.015Z,63.87
2023-03-29T08:13:16.949Z,63.92
2023-03-29T08:14:16.979Z,63.95
2023-03-29T08:15:17.026Z,64.02
2023-03-29T08:16:16.982Z,64.03
2023-03-29T08:17:17.008Z,64.03
2023-03-29T08:18:17.092Z,64.00
2023-03-29T08:19:16.850Z,63.91
2023-03-29T08:20:16.998Z,64.00
2023-03-29T08:21:16.896Z,64.04
2023-03-29T08:22:17.088Z,64.05
2023-03-29T08:23:16.976Z,64.08
2023-03-29T08:24:18.575Z,64.08
2023-03-29T08:25:16.910Z,64.02
2023-03-29T08:26:16.915Z,64.03
2023-03-29T08:27:16.798Z,64.01
2023-03-29T08:28:16.873Z,63.97
2023-03-29T08:29:16.907Z,63.97
2023-03-29T08:30:16.894Z,63.96
2023-03-29T08:31:16.910Z,63.98
2023-03-29T08:32:16.822Z,63.90
2023-03-29T08:33:16.977Z,63.89
2023-03-29T08:34:16.784Z,63.80
2023-03-29T08:35:16.781Z,63.84
2023-03-29T08:36:16.795Z,63.95
2023-03-29T08:37:16.760Z,63.96
2023-03-29T08:38:16.705Z,63.98
2023-03-29T08:39:17.831Z,64.04
2023-03-29T08:40:16.794Z,64.06
2023-03-29T08:41:16.785Z,64.00
2023-03-29T08:42:16.732Z,63.95
2023-03-29T08:43:16.734Z,63.96
2023-03-29T08:44:16.644Z,63.91
2023-03-29T08:45:16.751Z,63.83
2023-03-29T08:46:16.647Z,63.84
2023-03-29T08:47:16.599Z,63.83
2023-03-29T08:48:16.632Z,63.82
2023-03-29T08:49:16.583Z,63.82
2023-03-29T08:50:16.642Z,63.77
2023-03-29T08:51:16.552Z,63.75
2023-03-29T08:52:16.568Z,63.75
2023-03-29T08:53:16.548Z,63.75
2023-03-29T08:54:16.558Z,63.70
2023-03-29T08:55:16.502Z,63.71
2023-03-29T08:56:16.515Z,63.65
2023-03-29T08:57:16.532Z,63.61
2023-03-29T08:58:16.587Z,63.60
2023-03-29T08:59:16.480Z,63.58
2023-03-29T09:00:16.526Z,63.61
2023-03-29T09:01:16.482Z,63.56
2023-03-29T09:02:16.553Z,63.41
2023-03-29T09:03:16.478Z,63.49
2023-03-29T09:04:16.581Z,63.43
2023-03-29T09:05:16.391Z,63.38
2023-03-29T09:06:16.380Z,63.29
2023-03-29T09:07:16.382Z,63.28
2023-03-29T09:08:16.389Z,63.20
2023-03-29T09:09:16.366Z,63.11
2023-03-29T09:10:16.399Z,63.27
2023-03-29T09:11:16.352Z,63.21
2023-03-29T09:12:16.322Z,63.03
2023-03-29T09:13:16.372Z,62.97
2023-03-29T09:14:16.381Z,63.04
2023-03-29T09:15:16.281Z,63.03
2023-03-29T09:16:16.363Z,62.90
2023-03-29T09:17:16.259Z,62.90
2023-03-29T09:18:16.331Z,62.85
2023-03-29T09:19:16.259Z,62.80
2023-03-29T09:20:16.325Z,62.75
2023-03-29T09:21:16.262Z,62.70
2023-03-29T09:22:16.274Z,62.63
2023-03-29T09:23:16.188Z,62.53
2023-03-29T09:24:16.194Z,62.45
2023-03-29T09:25:16.219Z,62.39
2023-03-29T09:26:16.214Z,62.30
2023-03-29T09:27:16.134Z,62.21
2023-03-29T09:28:16.170Z,62.12
2023-03-29T09:29:16.120Z,62.07
2023-03-29T09:30:16.154Z,62.00
2023-03-29T09:31:16.177Z,61.99
2023-03-29T09:32:16.151Z,61.95
2023-03-29T09:33:16.081Z,61.91
2023-03-29T09:34:16.127Z,61.87
2023-03-29T09:35:16.131Z,61.83
2023-03-29T09:36:16.107Z,61.84
2023-03-29T09:37:16.174Z,61.79
2023-03-29T09:38:16.102Z,61.78
2023-03-29T09:39:16.012Z,61.77
2023-03-29T09:40:16.012Z,61.74
2023-03-29T09:41:16.029Z,61.69
2023-03-29T09:42:16.069Z,61.65
2023-03-29T09:43:15.974Z,61.63
2023-03-29T09:45:16.314Z,61.65
2023-03-29T09:46:16.404Z,61.61
2023-03-29T09:47:16.495Z,61.63
2023-03-29T09:48:16.005Z,61.74
2023-03-29T09:49:17.334Z,61.78
2023-03-29T09:50:29.561Z,61.74
2023-03-29T09:51:17.046Z,61.68
2023-03-29T09:52:15.952Z,61.69
2023-03-29T09:53:15.873Z,61.71
2023-03-29T09:54:15.882Z,61.71
2023-03-29T09:55:15.910Z,61.78
2023-03-29T09:56:15.889Z,61.74
2023-03-29T09:57:15.871Z,61.75
2023-03-29T09:58:15.876Z,61.74
2023-03-29T09:59:15.813Z,61.94
2023-03-29T10:00:15.830Z,62.14
2023-03-29T10:01:16.035Z,62.09
2023-03-29T10:02:15.790Z,62.21
2023-03-29T10:03:15.805Z,62.14
2023-03-29T10:04:15.786Z,62.01
2023-03-29T10:05:15.965Z,62.00
2023-03-29T10:06:15.764Z,62.06
2023-03-29T10:07:17.610Z,62.15
2023-03-29T10:08:19.634Z,62.17
2023-03-29T10:09:16.308Z,62.18
2023-03-29T10:10:17.730Z,62.24
2023-03-29T10:11:16.220Z,62.18
2023-03-29T10:12:15.752Z,62.13
2023-03-29T10:13:15.949Z,62.08
2023-03-29T10:14:15.794Z,61.99
2023-03-29T10:15:26.720Z,61.94
2023-03-29T10:16:16.623Z,62.00
2023-03-29T10:17:15.644Z,62.21
2023-03-29T10:18:15.677Z,62.27
2023-03-29T10:19:16.099Z,62.25
2023-03-29T10:20:19.156Z,62.19
2023-03-29T10:21:19.685Z,62.11
2023-03-29T10:22:16.006Z,62.01
2023-03-29T10:23:17.301Z,61.93
2023-03-29T10:24:21.239Z,61.93
2023-03-29T10:25:17.305Z,61.96
2023-03-29T10:26:18.997Z,61.87
2023-03-29T10:27:17.016Z,61.69
2023-03-29T10:28:17.976Z,61.54
2023-03-29T10:29:18.850Z,61.43
2023-03-29T10:31:56.886Z,61.22
2023-03-29T10:32:51.997Z,61.25
2023-03-29T10:33:49.362Z,61.19
2023-03-29T10:34:51.133Z,61.10
2023-03-29T10:35:49.225Z,60.94
2023-03-29T10:36:46.582Z,60.84
2023-03-29T10:37:46.430Z,60.73
2023-03-29T10:38:47.657Z,60.82
2023-03-29T10:39:47.211Z,60.86
2023-03-29T10:40:46.505Z,60.86
2023-03-29T10:41:46.334Z,60.88
2023-03-29T10:42:46.511Z,60.90
2023-03-29T10:43:46.394Z,60.87
2023-03-29T10:44:46.459Z,60.88
2023-03-29T10:45:46.333Z,60.87
2023-03-29T10:46:46.294Z,60.89
2023-03-29T10:47:46.463Z,60.94
2023-03-29T10:48:46.268Z,60.97
2023-03-29T10:49:46.241Z,61.01
2023-03-29T10:50:46.281Z,61.05
2023-03-29T10:51:46.287Z,61.08
2023-03-29T10:52:46.272Z,61.10
2023-03-29T10:53:46.304Z,61.07
2023-03-29T10:54:46.241Z,61.06
2023-03-29T10:55:46.290Z,61.11
2023-03-29T10:56:46.248Z,61.12
2023-03-29T10:57:46.293Z,61.08
2023-03-29T10:58:46.161Z,61.10
2023-03-29T10:59:46.268Z,61.11
2023-03-29T11:00:46.165Z,61.06
2023-03-29T11:01:46.344Z,60.95
2023-03-29T11:02:46.150Z,60.92
2023-03-29T11:03:46.249Z,60.78
2023-03-29T11:04:46.083Z,60.32
2023-03-29T11:05:46.140Z,60.36
2023-03-29T11:06:46.353Z,60.36
2023-03-29T11:07:46.050Z,60.34
2023-03-29T11:08:46.029Z,60.42
2023-03-29T11:09:46.183Z,60.45
2023-03-29T11:10:46.006Z,60.41
2023-03-29T11:11:46.033Z,60.38
2023-03-29T11:12:46.060Z,60.32
2023-03-29T11:13:46.010Z,60.30
2023-03-29T11:14:45.965Z,60.24
2023-03-29T11:15:46.052Z,60.16
2023-03-29T11:16:45.975Z,60.01
2023-03-29T11:17:45.993Z,59.80
2023-03-29T11:18:46.154Z,59.73
2023-03-29T11:19:45.972Z,59.77
2023-03-29T11:20:45.944Z,59.72
2023-03-29T11:21:46.040Z,59.57
2023-03-29T11:22:45.934Z,59.53
2023-03-29T11:23:45.991Z,59.61
2023-03-29T11:24:45.910Z,59.64
2023-03-29T11:25:45.892Z,59.61
2023-03-29T11:26:45.886Z,59.61
2023-03-29T11:27:45.837Z,59.57
2023-03-29T11:28:45.844Z,59.53
2023-03-29T11:29:45.845Z,59.27
2023-03-29T11:30:45.848Z,59.27
2023-03-29T11:31:45.857Z,58.96
2023-03-29T11:32:45.911Z,58.93
2023-03-29T11:33:45.777Z,58.89
2023-03-29T11:34:45.791Z,58.99
2023-03-29T11:35:45.894Z,58.91
2023-03-29T11:36:45.721Z,58.88
2023-03-29T11:37:45.782Z,58.95
2023-03-29T11:38:46.087Z,58.93
2023-03-29T11:39:45.806Z,58.92
2023-03-29T11:40:45.710Z,58.87
2023-03-29T11:41:45.846Z,58.88
2023-03-29T11:42:45.711Z,58.88
2023-03-29T11:43:45.706Z,58.98
2023-03-29T11:44:46.532Z,59.10
2023-03-29T11:45:45.620Z,59.01
2023-03-29T11:46:45.681Z,59.00
2023-03-29T11:47:45.656Z,59.02
2023-03-29T11:48:45.599Z,59.00
2023-03-29T11:49:45.589Z,59.11
2023-03-29T11:50:45.610Z,59.18
2023-03-29T11:51:45.567Z,59.17
2023-03-29T11:52:45.554Z,59.24
2023-03-29T11:53:45.673Z,59.34
2023-03-29T11:54:45.524Z,59.47
2023-03-29T11:55:45.531Z,59.53
2023-03-29T11:56:45.631Z,59.63
2023-03-29T11:57:45.555Z,59.65
2023-03-29T11:58:45.545Z,59.72
2023-03-29T11:59:45.495Z,59.72
2023-03-29T12:00:45.481Z,59.76
2023-03-29T12:01:45.540Z,59.85
2023-03-29T12:02:45.657Z,59.80
2023-03-29T12:03:46.974Z,59.82
2023-03-29T12:04:45.492Z,59.84
2023-03-29T12:05:45.445Z,59.87
2023-03-29T12:06:45.493Z,59.91
2023-03-29T12:07:45.384Z,59.86
2023-03-29T12:08:46.759Z,59.74
2023-03-29T12:09:46.802Z,59.70
2023-03-29T12:10:46.164Z,59.64
2023-03-29T12:11:46.592Z,59.59
2023-03-29T12:12:45.339Z,59.49
2023-03-29T12:13:45.407Z,59.44
2023-03-29T12:14:45.355Z,59.43
2023-03-29T12:15:45.349Z,59.43
2023-03-29T12:16:45.336Z,59.44
2023-03-29T12:17:45.291Z,59.43
2023-03-29T12:18:45.280Z,59.47
2023-03-29T12:19:45.329Z,59.53
2023-03-29T12:20:45.248Z,59.56
2023-03-29T12:21:45.229Z,59.58
2023-03-29T12:22:45.238Z,59.64
2023-03-29T12:23:45.253Z,59.73
2023-03-29T12:24:45.287Z,59.77
2023-03-29T12:25:45.190Z,59.81
2023-03-29T12:26:45.216Z,59.81
2023-03-29T12:27:45.198Z,59.83
2023-03-29T12:28:45.163Z,59.82
2023-03-29T12:29:45.193Z,59.88
2023-03-29T12:30:45.197Z,59.92
2023-03-29T12:31:45.159Z,59.94
2023-03-29T12:32:45.153Z,59.96
2023-03-29T12:33:45.121Z,60.02
2023-03-29T12:34:45.087Z,60.09
2023-03-29T12:35:45.115Z,60.11
2023-03-29T12:36:45.070Z,60.09
2023-03-29T12:37:45.093Z,60.09
2023-03-29T12:38:45.078Z,60.05
2023-03-29T12:39:45.135Z,60.05
2023-03-29T12:40:45.247Z,60.02
2023-03-29T12:41:45.035Z,60.09
2023-03-29T12:42:45.015Z,60.20
2023-03-29T12:43:45.009Z,60.29
2023-03-29T12:44:45.068Z,60.32
2023-03-29T12:45:45.003Z,60.31
2023-03-29T12:46:45.197Z,60.28
2023-03-29T12:47:44.972Z,60.16
2023-03-29T12:48:44.985Z,60.07
2023-03-29T12:49:44.968Z,59.96
2023-03-29T12:50:44.962Z,59.80
2023-03-29T12:51:44.924Z,59.66
2023-03-29T12:52:44.928Z,59.56
2023-03-29T12:53:44.879Z,59.51
2023-03-29T12:54:44.981Z,59.52
2023-03-29T12:55:44.896Z,59.52
2023-03-29T12:56:44.942Z,59.56
2023-03-29T12:57:44.837Z,59.51
2023-03-29T12:58:44.869Z,59.57
2023-03-29T12:59:44.840Z,59.60
2023-03-29T13:00:44.899Z,59.72